Time;durP1;ratioP1;P1;durP2;ratioP2;P2;SDS_P1;SDS_P2;PMS_P1;PMS_P2;Temp;Humidity;BMP_temperature;BMP_pressure;BME280_temperature;BME280_humidity;BME280_pressure;Samples;Min_cycle;Max_cycle;Signal;HPM_P1;HPM_P2
2022/03/10 00:00:35;;;;;;;16.35;9.33;;;3.50;83.60;;;;;;1935686;74;21015;-49
2022/03/10 00:03:04;;;;;;;12.35;8.80;;;3.40;83.50;;;;;;1935582;74;21051;-47
2022/03/10 00:05:34;;;;;;;18.85;10.60;;;3.40;83.70;;;;;;1935731;74;21015;-48
2022/03/10 00:08:03;;;;;;;16.12;9.68;;;3.30;83.90;;;;;;1935636;74;21097;-48
2022/03/10 00:10:33;;;;;;;15.15;9.53;;;3.30;84.20;;;;;;1935619;74;21081;-48
2022/03/10 00:13:02;;;;;;;15.18;10.00;;;3.30;84.50;;;;;;1935583;74;20999;-49
2022/03/10 00:15:32;;;;;;;18.10;10.23;;;3.40;84.40;;;;;;1935603;74;21023;-48
2022/03/10 00:18:02;;;;;;;15.45;9.08;;;3.40;84.40;;;;;;1935712;74;21019;-48
2022/03/10 00:20:31;;;;;;;17.05;9.80;;;3.40;84.50;;;;;;1935588;74;21011;-48
2022/03/10 00:23:00;;;;;;;19.62;10.93;;;3.40;84.70;;;;;;1935654;74;21083;-48
2022/03/10 00:25:31;;;;;;;15.98;9.90;;;3.40;84.70;;;;;;1935703;74;21019;-48
2022/03/10 00:28:00;;;;;;;16.85;11.10;;;3.40;84.70;;;;;;1935698;74;21503;-48
2022/03/10 00:30:30;;;;;;;18.23;10.82;;;3.40;84.60;;;;;;1935639;74;21105;-48
2022/03/10 00:32:59;;;;;;;18.30;10.78;;;3.40;84.60;;;;;;1935605;74;21003;-47
2022/03/10 00:35:29;;;;;;;15.72;9.85;;;3.40;84.80;;;;;;1947428;74;21027;-47
2022/03/10 00:37:59;;;;;;;15.00;9.53;;;3.40;84.80;;;;;;1948718;74;21023;-47
2022/03/10 00:40:30;;;;;;;24.60;10.80;;;3.40;84.90;;;;;;1948614;74;21035;-48
2022/03/10 00:42:59;;;;;;;14.95;10.35;;;3.40;85.10;;;;;;1948820;74;21026;-48
2022/03/10 00:45:28;;;;;;;16.23;10.20;;;3.50;85.10;;;;;;1948748;74;21081;-49
2022/03/10 00:47:57;;;;;;;16.67;11.12;;;3.50;85.10;;;;;;1948723;74;21018;-47
2022/03/10 00:50:26;;;;;;;20.77;10.25;;;3.50;84.90;;;;;;1948807;74;21015;-50
2022/03/10 00:52:55;;;;;;;17.17;11.50;;;3.40;84.80;;;;;;1948617;74;21023;-48
2022/03/10 00:55:25;;;;;;;17.27;10.65;;;3.40;84.60;;;;;;1948637;73;21066;-47
2022/03/10 00:57:54;;;;;;;15.20;11.08;;;3.30;84.40;;;;;;1948658;74;21018;-47
2022/03/10 01:00:25;;;;;;;21.02;11.08;;;3.20;84.60;;;;;;1948670;74;21034;-47
2022/03/10 01:02:55;;;;;;;14.53;10.10;;;3.20;85.20;;;;;;1948719;74;21059;-49
2022/03/10 01:05:25;;;;;;;19.82;11.90;;;3.20;85.20;;;;;;1948625;74;20999;-47
2022/03/10 01:07:54;;;;;;;18.70;10.80;;;3.20;85.40;;;;;;1948725;74;21019;-47
2022/03/10 01:10:23;;;;;;;16.52;11.25;;;3.20;85.50;;;;;;1948742;74;21014;-48
2022/03/10 01:12:53;;;;;;;19.10;11.75;;;3.20;83.50;;;;;;1948750;74;21022;-47
2022/03/10 01:15:28;;;;;;;18.75;11.83;;;3.20;84.70;;;;;;1948746;74;21019;-48
2022/03/10 01:17:58;;;;;;;24.23;11.30;;;3.00;85.20;;;;;;1948850;74;21023;-48
2022/03/10 01:20:27;;;;;;;16.90;9.90;;;3.10;85.60;;;;;;1948797;74;21019;-48
2022/03/10 01:22:56;;;;;;;15.55;11.05;;;3.10;85.70;;;;;;1948677;73;21026;-47
2022/03/10 01:25:25;;;;;;;19.05;10.80;;;3.10;85.90;;;;;;1948893;74;21070;-47
2022/03/10 01:27:55;;;;;;;15.75;9.88;;;3.10;85.80;;;;;;1948789;74;21074;-49
2022/03/10 01:30:24;;;;;;;16.52;10.98;;;3.10;86.20;;;;;;1948700;74;21019;-48
2022/03/10 01:32:53;;;;;;;14.75;10.08;;;3.20;85.70;;;;;;1948749;74;21077;-49
2022/03/10 01:35:24;;;;;;;12.53;9.08;;;3.10;85.50;;;;;;1948656;74;21097;-47
2022/03/10 01:37:53;;;;;;;17.37;10.25;;;3.10;85.60;;;;;;1948770;74;21148;-47
2022/03/10 01:40:22;;;;;;;17.27;10.88;;;3.10;85.70;;;;;;1948643;74;21054;-48
2022/03/10 01:42:53;;;;;;;15.25;9.23;;;3.10;85.80;;;;;;1948556;74;21023;-48
2022/03/10 01:45:22;;;;;;;19.80;11.00;;;3.00;85.60;;;;;;1948739;74;21074;-47
2022/03/10 01:47:52;;;;;;;17.48;11.40;;;3.00;85.80;;;;;;1948649;74;21031;-48
2022/03/10 01:50:21;;;;;;;21.10;11.43;;;3.00;85.90;;;;;;1948768;74;21073;-48
2022/03/10 01:52:50;;;;;;;17.98;11.20;;;3.10;86.00;;;;;;1948580;74;21011;-47
2022/03/10 01:55:21;;;;;;;22.10;11.30;;;3.10;85.90;;;;;;1948955;74;21084;-48
2022/03/10 01:57:50;;;;;;;15.43;10.90;;;3.10;85.90;;;;;;1948852;74;21027;-50
2022/03/10 02:00:19;;;;;;;16.12;9.23;;;3.10;85.70;;;;;;1948731;74;21077;-49
2022/03/10 02:02:50;;;;;;;14.93;9.45;;;3.10;85.60;;;;;;1948901;74;21061;-47
2022/03/10 02:05:19;;;;;;;15.48;9.25;;;3.10;85.90;;;;;;1948768;74;21070;-49
2022/03/10 02:10:36;;;;;;;15.48;9.28;;;3.10;85.90;;;;;;1948985;74;21081;-48
2022/03/10 02:13:06;;;;;;;11.88;8.33;;;3.10;85.90;;;;;;1948994;74;21119;-47
2022/03/10 02:18:23;;;;;;;15.35;9.18;;;3.10;85.90;;;;;;1948857;74;21034;-49
2022/03/10 02:20:52;;;;;;;16.05;9.40;;;3.10;85.70;;;;;;1948844;74;20995;-48
2022/03/10 02:23:22;;;;;;;26.37;14.10;;;3.10;85.80;;;;;;1948741;73;21019;-49
2022/03/10 02:25:52;;;;;;;63.08;31.68;;;3.00;85.40;;;;;;1948767;74;20998;-49
2022/03/10 02:28:21;;;;;;;58.58;33.38;;;2.90;85.70;;;;;;1948877;74;20998;-47
2022/03/10 02:30:50;;;;;;;30.65;18.52;;;2.90;85.90;;;;;;1948738;74;21018;-47
2022/03/10 02:33:20;;;;;;;28.62;15.20;;;2.90;86.20;;;;;;1948835;74;21018;-47
2022/03/10 02:35:49;;;;;;;22.70;14.13;;;2.90;86.30;;;;;;1942263;73;21109;-48
2022/03/10 02:38:19;;;;;;;22.37;12.23;;;2.90;86.10;;;;;;1935747;74;21055;-47
2022/03/10 02:40:50;;;;;;;18.95;11.60;;;2.90;86.20;;;;;;1935593;74;21031;-49
2022/03/10 02:43:20;;;;;;;19.57;10.78;;;3.00;86.50;;;;;;1935729;74;21089;-48
2022/03/10 02:45:51;;;;;;;27.13;14.65;;;3.00;86.30;;;;;;1935658;74;21019;-48
2022/03/10 02:48:20;;;;;;;22.20;13.48;;;3.00;86.50;;;;;;1935815;74;21089;-47
2022/03/10 02:50:50;;;;;;;27.52;15.10;;;3.00;86.50;;;;;;1935653;74;21039;-47
2022/03/10 02:53:19;;;;;;;20.68;12.98;;;3.00;86.60;;;;;;1935744;74;21019;-48
2022/03/10 02:55:48;;;;;;;20.77;12.37;;;3.00;86.40;;;;;;1935630;74;20999;-48
2022/03/10 02:58:17;;;;;;;23.75;11.90;;;3.00;86.50;;;;;;1935777;74;21000;-47
2022/03/10 03:00:48;;;;;;;22.52;11.45;;;3.10;86.60;;;;;;1935687;74;21043;-49
2022/03/10 03:03:18;;;;;;;16.82;10.75;;;3.00;86.20;;;;;;1935627;74;21027;-47
2022/03/10 03:05:47;;;;;;;17.35;9.73;;;3.00;85.60;;;;;;1935763;74;21015;-48
2022/03/10 03:08:17;;;;;;;19.50;12.28;;;2.90;85.00;;;;;;1935632;74;21024;-47
2022/03/10 03:10:46;;;;;;;17.52;10.23;;;2.80;85.60;;;;;;1935751;74;21019;-47
2022/03/10 03:13:16;;;;;;;19.85;11.75;;;2.80;86.10;;;;;;1935668;74;21051;-48
2022/03/10 03:15:45;;;;;;;17.62;11.22;;;2.80;86.10;;;;;;1935623;74;21062;-47
2022/03/10 03:18:15;;;;;;;16.25;10.38;;;2.80;85.60;;;;;;1935888;74;21035;-47
2022/03/10 03:20:44;;;;;;;15.53;10.03;;;2.80;85.30;;;;;;1935663;74;21023;-48
2022/03/10 03:23:14;;;;;;;20.45;10.23;;;2.70;85.80;;;;;;1935704;74;21085;-49
2022/03/10 03:25:43;;;;;;;18.15;10.98;;;2.70;86.10;;;;;;1935644;74;21039;-49
2022/03/10 03:28:12;;;;;;;16.20;10.58;;;2.80;86.30;;;;;;1935752;74;21117;-49
2022/03/10 03:30:41;;;;;;;16.73;10.53;;;2.80;86.40;;;;;;1935605;74;21080;-48
2022/03/10 03:33:11;;;;;;;17.23;10.95;;;2.90;86.20;;;;;;1935615;74;21093;-47
2022/03/10 03:35:41;;;;;;;19.75;11.25;;;2.90;86.10;;;;;;1936916;73;21120;-48
2022/03/10 03:38:11;;;;;;;18.45;10.53;;;2.90;86.10;;;;;;1943280;74;21085;-49
2022/03/10 03:40:41;;;;;;;20.92;11.22;;;2.90;85.50;;;;;;1943141;74;21089;-49
2022/03/10 03:43:10;;;;;;;18.45;10.95;;;2.80;85.40;;;;;;1943144;74;21122;-48
2022/03/10 03:45:39;;;;;;;18.62;11.50;;;2.80;85.60;;;;;;1943121;74;21073;-47
2022/03/10 03:48:09;;;;;;;24.92;11.03;;;2.80;86.20;;;;;;1943240;74;21078;-47
2022/03/10 03:50:38;;;;;;;17.80;10.88;;;2.80;86.40;;;;;;1943231;74;21080;-47
2022/03/10 03:53:07;;;;;;;18.75;11.83;;;2.80;86.30;;;;;;1943129;74;21081;-48
2022/03/10 03:55:37;;;;;;;20.82;12.45;;;2.90;86.40;;;;;;1943161;74;21003;-48
2022/03/10 03:58:06;;;;;;;19.17;11.15;;;3.00;86.60;;;;;;1943217;74;21214;-47
2022/03/10 04:00:36;;;;;;;23.45;12.28;;;3.00;86.70;;;;;;1943083;74;21015;-48
2022/03/10 04:03:12;;;;;;;24.75;13.30;;;3.10;86.70;;;;;;1943179;74;21344;-49
2022/03/10 04:05:42;;;;;;;25.10;14.53;;;3.10;86.70;;;;;;1943296;74;21022;-49
2022/03/10 04:08:11;;;;;;;31.70;18.20;;;3.20;86.70;;;;;;1943344;74;20998;-48
2022/03/10 04:10:40;;;;;;;23.95;13.98;;;3.10;85.70;;;;;;1943163;74;21531;-49
2022/03/10 04:13:10;;;;;;;25.95;13.32;;;3.00;86.10;;;;;;1943075;74;21073;-47
2022/03/10 04:15:39;;;;;;;19.30;12.20;;;3.00;86.50;;;;;;1943228;74;21047;-48
2022/03/10 04:18:09;;;;;;;27.32;14.10;;;3.10;86.70;;;;;;1943179;74;21003;-47
2022/03/10 04:20:38;;;;;;;26.55;13.72;;;3.10;86.70;;;;;;1943170;74;21035;-48
2022/03/10 04:23:07;;;;;;;29.72;13.83;;;3.20;86.60;;;;;;1943038;74;21097;-48
2022/03/10 04:25:37;;;;;;;26.02;14.63;;;3.20;86.50;;;;;;1943093;73;21007;-48
2022/03/10 04:28:06;;;;;;;23.22;14.50;;;3.10;86.30;;;;;;1943246;74;21090;-47
2022/03/10 04:30:38;;;;;;;26.17;15.45;;;3.20;86.40;;;;;;1943147;74;21066;-48
2022/03/10 04:33:07;;;;;;;25.40;14.35;;;3.10;86.70;;;;;;1943110;74;21014;-47
2022/03/10 04:35:36;;;;;;;24.15;14.63;;;3.20;86.80;;;;;;1943108;74;21069;-48
2022/03/10 04:38:07;;;;;;;28.92;16.65;;;3.20;85.90;;;;;;1936459;74;21152;-48
2022/03/10 04:40:37;;;;;;;30.57;14.85;;;3.20;86.30;;;;;;1935834;74;21063;-48
2022/03/10 04:43:06;;;;;;;27.80;13.62;;;3.10;85.90;;;;;;1935822;74;21035;-48
2022/03/10 04:45:35;;;;;;;32.10;14.23;;;3.10;85.50;;;;;;1935836;74;21091;-47
2022/03/10 04:48:06;;;;;;;24.27;13.43;;;3.10;85.80;;;;;;1935685;74;21027;-48
2022/03/10 04:50:36;;;;;;;20.30;13.28;;;3.10;86.00;;;;;;1935812;74;21124;-48
2022/03/10 04:53:05;;;;;;;20.08;12.37;;;3.00;84.60;;;;;;1935796;74;21085;-50
2022/03/10 04:55:35;;;;;;;26.65;16.15;;;3.00;85.00;;;;;;1935695;74;20999;-49
2022/03/10 04:58:04;;;;;;;27.93;17.07;;;3.00;85.60;;;;;;1935802;74;21031;-49
2022/03/10 05:00:33;;;;;;;29.35;15.53;;;2.90;84.70;;;;;;1935728;74;21015;-49
2022/03/10 05:03:02;;;;;;;28.73;12.37;;;2.90;84.10;;;;;;1935780;74;20999;-48
2022/03/10 05:05:32;;;;;;;28.20;14.23;;;2.80;84.20;;;;;;1935759;74;21023;-48
2022/03/10 05:08:01;;;;;;;25.65;12.95;;;2.80;84.60;;;;;;1935617;74;20987;-49
2022/03/10 05:10:30;;;;;;;23.95;14.68;;;2.70;84.10;;;;;;1935584;74;21152;-51
2022/03/10 05:13:04;;;;;;;28.98;15.30;;;2.60;84.20;;;;;;1935657;74;21019;-49
2022/03/10 05:15:32;;;;;;;27.77;14.25;;;2.60;84.30;;;;;;1933852;74;21470;-50
2022/03/10 05:18:02;;;;;;;30.30;15.93;;;2.50;85.40;;;;;;1935534;74;21093;-51
2022/03/10 05:20:32;;;;;;;27.90;13.60;;;2.50;84.20;;;;;;1935602;74;21011;-50
2022/03/10 05:23:03;;;;;;;31.00;14.83;;;2.50;84.60;;;;;;1935456;74;21081;-49
2022/03/10 05:25:35;;;;;;;27.80;16.73;;;2.50;84.60;;;;;;1935658;74;21031;-49
2022/03/10 05:28:07;;;;;;;30.25;13.35;;;2.50;85.20;;;;;;1935543;74;21097;-48
2022/03/10 05:30:36;;;;;;;23.00;13.25;;;2.50;83.90;;;;;;1935550;74;21070;-48
2022/03/10 05:33:06;;;;;;;27.60;12.50;;;2.50;83.80;;;;;;1935597;74;21027;-48
2022/03/10 05:35:35;;;;;;;19.77;11.75;;;2.50;84.70;;;;;;1935651;74;21015;-49
2022/03/10 05:38:05;;;;;;;23.45;14.58;;;2.50;84.70;;;;;;1935621;74;21047;-49
2022/03/10 05:40:35;;;;;;;28.12;13.88;;;2.50;83.80;;;;;;1935801;74;21054;-49
2022/03/10 05:43:04;;;;;;;21.95;14.10;;;2.60;84.80;;;;;;1935701;74;21097;-49
2022/03/10 05:45:33;;;;;;;21.93;13.18;;;2.60;84.50;;;;;;1935703;74;20999;-49
2022/03/10 05:48:02;;;;;;;22.82;13.10;;;2.70;85.00;;;;;;1935623;74;21077;-48
2022/03/10 05:50:32;;;;;;;21.62;13.40;;;2.70;84.50;;;;;;1935749;74;21036;-48
2022/03/10 05:53:03;;;;;;;21.52;14.65;;;2.70;84.70;;;;;;1935665;74;21047;-50
2022/03/10 05:55:32;;;;;;;21.42;13.22;;;2.80;84.60;;;;;;1935833;74;20999;-49
2022/03/10 05:58:01;;;;;;;18.25;12.53;;;2.80;83.10;;;;;;1935713;74;21015;-48
2022/03/10 06:00:31;;;;;;;23.65;13.30;;;2.70;83.90;;;;;;1935732;74;21458;-49
2022/03/10 06:03:00;;;;;;;19.15;12.50;;;2.60;83.30;;;;;;1935947;74;21019;-51
2022/03/10 06:05:30;;;;;;;15.28;9.18;;;2.50;83.10;;;;;;1935831;74;21019;-51
2022/03/10 06:07:59;;;;;;;23.57;14.60;;;2.40;83.60;;;;;;1935932;74;21015;-48
2022/03/10 06:10:29;;;;;;;18.15;13.13;;;2.40;83.90;;;;;;1935885;74;21011;-49
2022/03/10 06:12:58;;;;;;;22.42;15.00;;;2.40;84.10;;;;;;1935659;74;21003;-48
2022/03/10 06:15:28;;;;;;;26.25;15.25;;;2.40;84.40;;;;;;1935711;74;21097;-48
2022/03/10 06:17:57;;;;;;;20.27;13.35;;;2.40;85.00;;;;;;1935570;74;21124;-49
2022/03/10 06:20:30;;;;;;;21.65;14.05;;;2.40;84.10;;;;;;1935592;74;21058;-49
2022/03/10 06:22:57;;;;;;;23.07;14.25;;;2.40;84.90;;;;;;1935446;74;21144;-47
2022/03/10 06:25:27;;;;;;;25.92;15.43;;;2.50;84.70;;;;;;1935749;74;21578;-48
2022/03/10 06:27:57;;;;;;;26.02;16.35;;;2.50;84.10;;;;;;1935820;74;21090;-49
2022/03/10 06:30:26;;;;;;;28.52;17.15;;;2.50;84.30;;;;;;1935747;74;21027;-49
2022/03/10 06:32:55;;;;;;;25.55;15.75;;;2.50;84.90;;;;;;1935728;74;21160;-48
2022/03/10 06:35:24;;;;;;;24.47;15.13;;;2.60;85.40;;;;;;1935643;74;21004;-51
2022/03/10 06:37:54;;;;;;;26.82;16.07;;;2.60;84.40;;;;;;1935684;74;21066;-49
2022/03/10 06:40:24;;;;;;;30.62;19.17;;;2.60;84.80;;;;;;1935750;74;21077;-49
2022/03/10 06:42:53;;;;;;;52.93;28.25;;;2.60;85.70;;;;;;1935551;74;21039;-48
2022/03/10 06:45:23;;;;;;;36.28;20.65;;;2.60;84.80;;;;;;1935612;74;21020;-49
2022/03/10 06:47:52;;;;;;;27.22;17.15;;;2.70;84.60;;;;;;1935649;74;21023;-48
2022/03/10 06:50:21;;;;;;;32.78;18.75;;;2.70;84.70;;;;;;1935684;74;21088;-48
2022/03/10 06:52:56;;;;;;;31.00;17.35;;;2.80;85.10;;;;;;1935618;74;21089;-49
2022/03/10 06:55:21;;;;;;;37.88;19.52;;;2.90;85.10;;;;;;1933236;74;21516;-49
2022/03/10 06:57:51;;;;;;;35.05;18.65;;;3.00;85.20;;;;;;1935742;74;21485;-49
2022/03/10 07:00:21;;;;;;;34.20;18.82;;;3.10;83.30;;;;;;1935768;74;21014;-49
2022/03/10 07:02:52;;;;;;;29.72;18.50;;;3.10;84.00;;;;;;1935683;74;21023;-48
2022/03/10 07:05:21;;;;;;;41.08;18.52;;;3.10;83.70;;;;;;1935678;74;21069;-49
2022/03/10 07:07:51;;;;;;;39.92;22.60;;;3.10;83.30;;;;;;1935798;74;21027;-49
2022/03/10 07:10:20;;;;;;;33.30;16.95;;;3.00;83.50;;;;;;1935702;74;21019;-49
2022/03/10 07:12:50;;;;;;;27.27;17.15;;;3.10;83.80;;;;;;1935696;74;21022;-50
2022/03/10 07:15:19;;;;;;;45.15;24.55;;;3.10;84.10;;;;;;1935779;74;21007;-51
2022/03/10 07:17:49;;;;;;;32.60;18.82;;;3.20;84.60;;;;;;1935708;74;21074;-51
2022/03/10 07:20:21;;;;;;;28.25;16.57;;;3.30;84.20;;;;;;1935683;74;20999;-49
2022/03/10 07:22:51;;;;;;;40.58;20.77;;;3.30;83.30;;;;;;1935784;74;21102;-49
2022/03/10 07:25:20;;;;;;;33.02;18.57;;;3.30;82.50;;;;;;1935772;74;21138;-50
2022/03/10 07:27:49;;;;;;;40.33;20.85;;;3.20;83.30;;;;;;1935579;74;21469;-48
2022/03/10 07:30:19;;;;;;;35.43;19.30;;;3.20;84.00;;;;;;1935745;74;21042;-52
2022/03/10 07:32:48;;;;;;;43.95;22.07;;;3.10;83.50;;;;;;1935499;74;21004;-49
2022/03/10 07:35:17;;;;;;;35.03;18.52;;;3.20;84.00;;;;;;1935611;74;21153;-51
2022/03/10 07:37:48;;;;;;;40.45;19.07;;;3.20;83.00;;;;;;1935543;74;21003;-48
2022/03/10 07:40:17;;;;;;;39.15;21.60;;;3.20;83.50;;;;;;1935569;74;21087;-51
2022/03/10 07:42:47;;;;;;;33.30;18.85;;;3.10;83.80;;;;;;1935664;74;21093;-49
2022/03/10 07:45:16;;;;;;;23.05;13.03;;;3.10;83.60;;;;;;1935546;74;20999;-49
2022/03/10 09:50:52;;;;;;;36.00;18.80;;;1.90;88.20;;;;;;1958271;72;25726;-52
2022/03/10 09:53:21;;;;;;;24.35;11.70;;;1.90;88.80;;;;;;1917565;75;21019;-52
2022/03/10 09:55:51;;;;;;;40.75;20.68;;;2.00;89.00;;;;;;1917508;74;21019;-51
2022/03/10 09:58:20;;;;;;;26.85;15.93;;;2.00;88.40;;;;;;1917870;75;21011;-52
2022/03/10 10:00:50;;;;;;;48.23;22.82;;;2.10;88.50;;;;;;1896845;74;21001;-52
2022/03/10 10:03:19;;;;;;;35.58;20.23;;;2.10;88.30;;;;;;1885012;76;21088;-52
2022/03/10 10:05:49;;;;;;;28.85;15.70;;;2.20;88.10;;;;;;1885042;75;21002;-53
2022/03/10 10:08:18;;;;;;;44.33;22.27;;;2.20;87.60;;;;;;1885005;76;21131;-50
2022/03/10 10:10:59;;;;;;;30.70;16.02;;;2.20;88.10;;;;;;1885008;76;21069;-52
2022/03/10 10:13:32;;;;;;;23.57;14.13;;;2.10;87.90;;;;;;1884156;75;21516;-52
2022/03/10 10:16:17;;;;;;;30.35;15.70;;;2.10;87.60;;;;;;1883755;76;21088;-50
2022/03/10 10:18:46;;;;;;;34.45;18.90;;;2.10;88.00;;;;;;1885234;76;21099;-50
2022/03/10 10:21:18;;;;;;;37.63;16.65;;;2.00;87.60;;;;;;1885046;76;21058;-49
2022/03/10 10:23:49;;;;;;;17.80;11.28;;;2.00;87.50;;;;;;1884822;76;21106;-54
2022/03/10 10:26:26;;;;;;;29.00;17.37;;;2.00;87.80;;;;;;1885061;75;21034;-54
2022/03/10 10:28:53;;;;;;;26.70;16.90;;;1.90;88.00;;;;;;1884906;75;21050;-51
2022/03/10 10:31:24;;;;;;;34.58;18.75;;;1.90;88.60;;;;;;1884798;76;21077;-53
2022/03/10 10:33:59;;;;;;;37.55;16.12;;;1.90;88.10;;;;;;1885154;75;21074;-54
2022/03/10 10:36:31;;;;;;;19.40;10.65;;;1.90;88.00;;;;;;1885514;76;21031;-49
2022/03/10 10:39:09;;;;;;;15.83;9.50;;;1.90;88.40;;;;;;1884811;76;21143;-52
2022/03/10 10:41:41;;;;;;;26.85;15.88;;;1.90;88.40;;;;;;1885050;76;21054;-53
2022/03/10 10:44:16;;;;;;;19.37;11.53;;;1.90;88.10;;;;;;1885088;76;21058;-51
2022/03/10 10:46:49;;;;;;;30.35;16.97;;;1.90;88.20;;;;;;1884835;76;21054;-55
2022/03/10 10:49:20;;;;;;;27.85;16.27;;;1.90;88.90;;;;;;1880123;75;21034;-53
2022/03/10 10:51:54;;;;;;;23.45;12.78;;;2.00;87.90;;;;;;1848885;77;21531;-54
2022/03/10 10:54:25;;;;;;;12.85;8.88;;;2.00;87.70;;;;;;1849057;77;21170;-52
2022/03/10 10:56:57;;;;;;;32.48;16.42;;;2.00;87.60;;;;;;1849059;77;21523;-53
2022/03/10 10:59:37;;;;;;;29.02;16.12;;;1.90;88.00;;;;;;1848772;77;21033;-47
2022/03/10 11:02:21;;;;;;;26.48;14.98;;;2.00;88.90;;;;;;1848396;77;21033;-53
2022/03/10 11:04:52;;;;;;;22.77;11.95;;;2.00;88.10;;;;;;1848381;77;21147;-48
2022/03/10 11:07:23;;;;;;;30.40;15.38;;;2.00;87.90;;;;;;1848165;77;21143;-47
2022/03/10 11:09:53;;;;;;;31.23;16.65;;;2.00;87.70;;;;;;1848424;77;21025;-52
2022/03/10 11:12:23;;;;;;;22.27;12.75;;;2.00;88.20;;;;;;1848341;77;21085;-47
2022/03/10 11:14:52;;;;;;;20.95;11.35;;;2.10;88.40;;;;;;1848401;77;21080;-47
2022/03/10 11:17:22;;;;;;;26.17;14.03;;;2.10;87.50;;;;;;1848610;77;21029;-49
2022/03/10 11:19:56;;;;;;;30.43;16.55;;;2.00;87.70;;;;;;1848339;76;21084;-47
2022/03/10 11:22:49;;;;;;;27.32;14.60;;;2.00;87.90;;;;;;1848376;77;21508;-49
2022/03/10 11:25:33;;;;;;;15.93;11.20;;;2.00;88.60;;;;;;1848328;77;21182;-48
2022/03/10 11:28:23;;;;;;;22.75;13.15;;;2.00;88.60;;;;;;1847641;77;21612;-50
2022/03/10 11:30:59;;;;;;;33.90;18.92;;;2.00;88.40;;;;;;1848639;77;21053;-47
2022/03/10 11:33:33;;;;;;;37.50;17.25;;;2.00;88.00;;;;;;1848481;77;21163;-47
2022/03/10 11:36:22;;;;;;;32.98;18.77;;;1.90;88.10;;;;;;1847831;76;21045;-54
